Terminal Aerodrome Forecast
Issued by NWS

Home | Current Version | Previous Version | Text Only | Print | Product List | Glossary On
Versions: 1 2 3 4 5 6 7 8 9 10 11 12 13 14 15 16
552
FTUS43 KMQT 152320
TAFCMX
TAF
KCMX 152320Z 1600/1624 33008KT 2SM -SHSN OVC025
     FM160500 01007KT 3SM -SHSN BKN030
     FM160900 07005KT 2SM -SHSN BKN020
     FM161200 07006KT 1SM -SHSN BKN020
     FM162100 11009KT P6SM BKN025=

USA.gov is the U.S. government's official web portal to all federal, state and local government web resources and services.